Terminal Aerodrome Forecast
Issued by NWS

Home | Current Version | Previous Version | Text Only | Print | Product List | Glossary On
Versions: 1 2 3 4 5 6 7 8 9 10 11 12 13 14
869
FTUS43 KICT 200520
TAFSLN
TAF
KSLN 200520Z 2006/2106 17010KT P6SM BKN015
      TEMPO 2006/2009 4SM -RA
     FM201600 19010KT P6SM SCT025
     FM202200 34017G25KT P6SM SCT250=

USA.gov is the U.S. government's official web portal to all federal, state and local government web resources and services.